Hauptseite
METAR-TAF:

METAR-TAF

Flughäfen :

Militärflugplatz Istres-Le Tubé

Istres, Frankreich

Breite: 43-31N, Länge: 004-56E, Höhe: 23 m

Beobachtung

Neuester Wetterbericht von vor 19 Minuten, um 12:30 UTC
Wind 11 kt aus Nord/Nordwest, variierte zwischen Nordwest und Nord
Temperatur 19°C
Luftfeuchtigkeit 52%
Luftdruck 1020 hPa
Sichtweite 10 km oder mehr
keine Wolken unter 1500 m und keine Kumulonimbus oder Gewitterwolken

METAR: LFMI 221230Z AUTO 34011KT 310V010 CAVOK 19/09 Q1020 NOSIG

Zeit: 14:49 (12:49 UTC)

Prognose

Neuester Wetterbericht von vor 4 Stunden und 49 Minuten, um 08:00 UTC
Gültige Prognose vom 22 um 09 UTC bis 23 um 09 UTC
Wind 15 kt aus Nord
Sichtweite 10 km oder mehr
keine Wolken unter 1500 m und keine Kumulonimbus oder Gewitterwolken

TAF: LFMI 220800Z 2209/2309 35015KT CAVOK

Wetterbeobachtungen und Prognosen von mehr als 4000 Flughäfen (METAR und TAF Bericht).

Die verfügbaren Stationen werden durch gelbe und rote Markierungen auf der Karte dargestellt.

Führen Sie die Maus auf sie, um den Namen der Station zu sehen.

Darauf klicken, um die Beobachtung von Wetterbeobachtungen und Prognosen zu sehen.

Um die Karte zu ändern : klicken Sie auf den grünen Tasten mit einem schwarzen Kreuz Zum Vergrößern, auf den grünen Button mit einem Gedankenstrich zu verkleinern, oder auf die grünen Pfeile für benachbarte Karten.


METAR-TAF: